Time;durP1;ratioP1;P1;durP2;ratioP2;P2;SDS_P1;SDS_P2;PMS_P1;PMS_P2;Temp;Humidity;BMP_temperature;BMP_pressure;BME280_temperature;BME280_humidity;BME280_pressure;Samples;Min_cycle;Max_cycle;Signal;HPM_P1;HPM_P2
2023/04/11 00:01:32;;;;;;;4.30;3.90;;;11.20;99.90;;;;;;5018374;28;20479;-60
2023/04/11 00:04:00;;;;;;;4.30;3.90;;;11.20;99.90;;;;;;5017044;28;20556;-60
2023/04/11 00:06:30;;;;;;;3.90;3.57;;;11.20;99.90;;;;;;5010512;28;20481;-60
2023/04/11 00:08:59;;;;;;;4.30;3.90;;;11.20;99.90;;;;;;5014759;28;20498;-61
2023/04/11 00:11:28;;;;;;;3.70;3.33;;;11.20;99.90;;;;;;5019261;28;20475;-60
2023/04/11 00:13:56;;;;;;;4.23;3.63;;;11.10;99.90;;;;;;5008478;28;21878;-61
2023/04/11 00:16:25;;;;;;;3.90;3.60;;;11.10;99.90;;;;;;5024080;28;20471;-61
2023/04/11 00:18:55;;;;;;;4.27;3.87;;;11.10;99.90;;;;;;5011799;28;20495;-61
2023/04/11 00:21:24;;;;;;;4.30;3.90;;;11.10;99.90;;;;;;5011059;28;20476;-60
2023/04/11 00:23:52;;;;;;;4.60;4.20;;;11.10;99.90;;;;;;5018922;28;20506;-61
2023/04/11 00:26:22;;;;;;;3.77;3.37;;;11.10;99.90;;;;;;5013913;28;20475;-60
2023/04/11 00:28:50;;;;;;;4.43;4.03;;;11.00;99.90;;;;;;5008389;28;20910;-60
2023/04/11 00:31:18;;;;;;;4.00;3.60;;;11.00;99.90;;;;;;5011737;28;20587;-61
2023/04/11 00:33:46;;;;;;;3.90;3.60;;;11.00;99.90;;;;;;5016371;28;20542;-60
2023/04/11 00:36:14;;;;;;;3.80;3.50;;;10.90;99.90;;;;;;5024034;28;20480;-60
2023/04/11 00:38:43;;;;;;;3.60;3.30;;;10.90;99.90;;;;;;5021794;28;20867;-61
2023/04/11 00:41:11;;;;;;;4.00;3.70;;;10.90;99.90;;;;;;5021831;28;20505;-61
2023/04/11 00:43:40;;;;;;;3.57;3.27;;;10.90;99.90;;;;;;5002491;28;21090;-60
2023/04/11 00:46:09;;;;;;;3.30;3.00;;;10.90;99.90;;;;;;5018261;28;20467;-61
2023/04/11 00:48:37;;;;;;;3.00;2.70;;;10.80;99.90;;;;;;5013290;28;21280;-61
2023/04/11 00:51:05;;;;;;;3.87;3.50;;;10.80;99.90;;;;;;5015297;28;20487;-60
2023/04/11 00:53:34;;;;;;;3.30;3.00;;;10.80;99.90;;;;;;5022394;28;20470;-61
2023/04/11 00:56:02;;;;;;;5.77;3.50;;;10.70;99.90;;;;;;5022233;28;20482;-61
2023/04/11 00:58:32;;;;;;;3.60;3.30;;;10.70;99.90;;;;;;4989153;28;20647;-60
2023/04/11 01:01:07;;;;;;;4.00;3.37;;;10.70;99.90;;;;;;4992721;28;20503;-61
2023/04/11 01:03:36;;;;;;;3.60;3.30;;;10.70;99.90;;;;;;5002308;28;20593;-60
2023/04/11 01:06:06;;;;;;;5.43;3.67;;;10.70;99.90;;;;;;5010572;28;20503;-61
2023/04/11 01:08:36;;;;;;;3.90;3.43;;;10.70;99.90;;;;;;5005423;28;20483;-61
2023/04/11 01:11:05;;;;;;;3.50;2.90;;;10.70;99.90;;;;;;5008914;28;20506;-60
2023/04/11 01:13:34;;;;;;;3.40;3.17;;;10.70;99.90;;;;;;5023223;28;20471;-61
2023/04/11 01:16:03;;;;;;;3.60;3.30;;;10.60;99.90;;;;;;5024855;28;20471;-61
2023/04/11 01:18:32;;;;;;;3.50;3.20;;;10.60;99.90;;;;;;5000590;28;20506;-61
2023/04/11 01:21:00;;;;;;;3.13;2.87;;;10.60;99.90;;;;;;5005411;28;21039;-61
2023/04/11 01:23:29;;;;;;;4.77;3.30;;;10.60;99.90;;;;;;5008153;28;20487;-61
2023/04/11 01:25:57;;;;;;;3.50;3.20;;;10.60;99.90;;;;;;5013812;28;20478;-60
2023/04/11 01:28:25;;;;;;;4.40;3.23;;;10.60;99.90;;;;;;5014883;28;21189;-60
2023/04/11 01:30:53;;;;;;;4.87;4.30;;;10.50;99.90;;;;;;4994908;28;20491;-61
2023/04/11 01:33:22;;;;;;;3.50;2.93;;;10.60;99.90;;;;;;5012363;28;20475;-61
2023/04/11 01:35:50;;;;;;;3.50;3.20;;;10.50;99.90;;;;;;5022446;28;20467;-61
2023/04/11 01:38:18;;;;;;;3.73;3.27;;;10.50;99.90;;;;;;5020669;28;20483;-61
2023/04/11 01:40:47;;;;;;;3.37;3.00;;;10.50;99.90;;;;;;5004549;28;20486;-61
2023/04/11 01:43:16;;;;;;;3.27;2.97;;;10.50;99.90;;;;;;5018700;28;20468;-61
2023/04/11 01:45:44;;;;;;;3.03;2.83;;;10.40;99.90;;;;;;5019423;28;20467;-60
2023/04/11 01:48:12;;;;;;;3.83;2.90;;;10.50;99.90;;;;;;5004807;28;20498;-64
2023/04/11 01:50:41;;;;;;;4.07;3.30;;;10.50;99.90;;;;;;5017731;28;20614;-61
2023/04/11 01:53:09;;;;;;;3.83;3.37;;;10.40;99.90;;;;;;5015784;28;20484;-60
2023/04/11 01:55:37;;;;;;;4.03;3.20;;;10.40;99.90;;;;;;4999759;28;20467;-60
2023/04/11 01:58:06;;;;;;;4.17;3.50;;;10.40;99.90;;;;;;5006836;28;21039;-60
2023/04/11 02:00:36;;;;;;;3.53;3.23;;;10.40;99.90;;;;;;4995816;28;20548;-61
2023/04/11 02:03:04;;;;;;;5.20;3.13;;;10.40;99.90;;;;;;5000733;28;20479;-61
2023/04/11 02:05:33;;;;;;;4.33;3.30;;;10.30;99.90;;;;;;5005946;28;20586;-61
2023/04/11 02:08:01;;;;;;;3.20;3.00;;;10.30;99.90;;;;;;4998448;28;20487;-61
2023/04/11 02:10:29;;;;;;;2.80;2.60;;;10.30;99.90;;;;;;4994954;28;20499;-61
2023/04/11 02:12:57;;;;;;;3.10;2.90;;;10.30;99.90;;;;;;4998506;28;20475;-61
2023/04/11 02:15:26;;;;;;;3.60;2.80;;;10.20;99.90;;;;;;5014842;28;20472;-61
2023/04/11 02:17:54;;;;;;;3.10;2.80;;;10.20;99.90;;;;;;4999854;28;20498;-61
2023/04/11 02:20:22;;;;;;;3.40;2.60;;;10.20;99.90;;;;;;5000386;28;20854;-61
2023/04/11 02:22:50;;;;;;;3.93;2.80;;;10.10;99.90;;;;;;5008425;28;20468;-61
2023/04/11 02:25:19;;;;;;;3.03;2.50;;;10.10;99.90;;;;;;5001245;28;21420;-61
2023/04/11 02:27:46;;;;;;;4.03;2.37;;;10.10;99.90;;;;;;4999907;28;20467;-61
2023/04/11 02:30:14;;;;;;;2.80;2.50;;;10.10;99.90;;;;;;4994445;28;20521;-62
2023/04/11 02:32:45;;;;;;;2.63;2.33;;;10.10;99.90;;;;;;5005878;28;20466;-64
2023/04/11 02:35:13;;;;;;;3.13;2.80;;;10.10;99.90;;;;;;4997121;28;20466;-62
2023/04/11 02:37:41;;;;;;;2.83;2.60;;;10.10;99.90;;;;;;5008160;28;20475;-62
2023/04/11 02:40:10;;;;;;;3.30;2.90;;;10.10;99.90;;;;;;4994228;28;20554;-62
2023/04/11 02:42:39;;;;;;;3.60;3.30;;;10.00;99.90;;;;;;5003141;28;21088;-62
2023/04/11 02:45:08;;;;;;;2.53;2.33;;;10.00;99.90;;;;;;4990951;28;20588;-59
2023/04/11 02:47:36;;;;;;;4.00;3.60;;;10.00;99.90;;;;;;5020650;28;20466;-60
2023/04/11 02:50:07;;;;;;;3.10;2.90;;;10.00;99.90;;;;;;5009251;28;20495;-59
2023/04/11 02:52:36;;;;;;;3.70;3.40;;;10.00;99.90;;;;;;5014755;28;20489;-59
2023/04/11 02:55:05;;;;;;;5.40;3.77;;;10.00;99.90;;;;;;5004712;28;21106;-59
2023/04/11 02:57:33;;;;;;;4.57;4.17;;;9.90;99.90;;;;;;5013301;28;20496;-59
2023/04/11 03:00:00;;;;;;;4.57;4.17;;;9.90;99.90;;;;;;5017509;28;20741;-59
2023/04/11 03:02:29;;;;;;;5.67;4.33;;;9.90;99.90;;;;;;5037349;28;20468;-58
2023/04/11 03:04:57;;;;;;;4.67;4.27;;;9.90;99.90;;;;;;5027680;28;20482;-59
2023/04/11 03:07:26;;;;;;;5.93;4.77;;;10.00;99.90;;;;;;5028159;28;20476;-60
2023/04/11 03:09:54;;;;;;;4.60;3.93;;;10.00;99.90;;;;;;5020846;28;20487;-59
2023/04/11 03:12:22;;;;;;;3.30;3.10;;;10.00;99.90;;;;;;5012737;28;20486;-59
2023/04/11 03:14:50;;;;;;;2.53;2.33;;;9.90;99.90;;;;;;5013397;28;20974;-59
2023/04/11 03:17:18;;;;;;;1.50;1.40;;;9.90;99.90;;;;;;5016848;28;20491;-60
2023/04/11 03:19:46;;;;;;;2.40;1.50;;;9.80;99.90;;;;;;5009786;28;20589;-60
2023/04/11 03:22:14;;;;;;;1.70;1.23;;;9.80;99.90;;;;;;5014294;28;22469;-60
2023/04/11 03:24:43;;;;;;;1.57;1.47;;;9.70;99.90;;;;;;5011899;28;20495;-59
2023/04/11 03:27:11;;;;;;;1.60;1.40;;;9.70;99.90;;;;;;5023029;28;20483;-60
2023/04/11 03:29:39;;;;;;;1.30;1.20;;;9.60;99.90;;;;;;5018396;28;20499;-60
2023/04/11 03:32:07;;;;;;;1.10;1.07;;;9.60;99.90;;;;;;5014304;28;20471;-59
2023/04/11 03:34:35;;;;;;;1.50;1.10;;;9.60;99.90;;;;;;5005690;28;20479;-59
2023/04/11 03:37:03;;;;;;;0.87;0.87;;;9.60;99.90;;;;;;5026045;28;20472;-60
2023/04/11 03:39:31;;;;;;;1.20;1.10;;;9.50;99.90;;;;;;5035176;28;20499;-59
2023/04/11 03:42:01;;;;;;;2.37;1.70;;;9.40;99.90;;;;;;5012889;28;20475;-59
2023/04/11 03:44:29;;;;;;;1.10;1.00;;;9.40;99.90;;;;;;5004578;28;21031;-60
2023/04/11 03:46:57;;;;;;;1.50;1.23;;;9.30;99.90;;;;;;5002181;28;20477;-59
2023/04/11 03:49:25;;;;;;;1.50;1.00;;;9.30;99.90;;;;;;5007864;28;21223;-60
2023/04/11 03:51:53;;;;;;;1.20;1.10;;;9.30;99.90;;;;;;5017643;28;20479;-59
2023/04/11 03:54:21;;;;;;;2.10;0.93;;;9.20;99.90;;;;;;5018056;28;21124;-59
2023/04/11 03:56:49;;;;;;;1.13;1.10;;;9.20;99.90;;;;;;5021548;28;21210;-59
2023/04/11 03:59:18;;;;;;;1.60;1.50;;;9.20;99.90;;;;;;4997410;28;20875;-59
2023/04/11 04:01:46;;;;;;;1.00;0.90;;;9.10;99.90;;;;;;4992538;28;20467;-60
2023/04/11 04:04:14;;;;;;;1.43;1.07;;;9.00;99.90;;;;;;5009513;28;20499;-59
2023/04/11 04:06:44;;;;;;;1.00;1.00;;;9.00;99.90;;;;;;5005928;28;21042;-59
2023/04/11 04:09:16;;;;;;;1.40;1.10;;;9.00;99.90;;;;;;5010631;28;20518;-59
2023/04/11 04:11:43;;;;;;;1.20;1.10;;;8.90;99.90;;;;;;5002355;28;20486;-60
2023/04/11 04:14:11;;;;;;;2.40;1.00;;;8.90;99.90;;;;;;5015157;28;21164;-59
2023/04/11 04:16:41;;;;;;;1.37;1.10;;;8.90;99.90;;;;;;5017624;28;20467;-60
2023/04/11 04:19:09;;;;;;;1.90;1.23;;;8.90;99.90;;;;;;5004028;28;20513;-64
2023/04/11 04:21:37;;;;;;;3.03;1.30;;;8.80;99.90;;;;;;4997993;28;20471;-59
2023/04/11 04:24:05;;;;;;;1.30;1.20;;;8.80;99.90;;;;;;5014504;28;20474;-59
2023/04/11 04:26:36;;;;;;;1.67;1.50;;;8.80;99.90;;;;;;5023051;28;20491;-60
2023/04/11 04:29:04;;;;;;;1.13;1.10;;;8.80;99.90;;;;;;5010816;28;20499;-59
2023/04/11 04:31:33;;;;;;;2.37;1.60;;;8.80;99.90;;;;;;5015318;28;20475;-59
2023/04/11 04:34:07;;;;;;;1.40;1.30;;;8.70;99.90;;;;;;5020077;28;20498;-59
2023/04/11 04:36:45;;;;;;;1.37;1.17;;;8.70;99.90;;;;;;5032963;28;20574;-60
2023/04/11 04:39:16;;;;;;;1.43;1.20;;;8.70;99.90;;;;;;5009020;28;20498;-59
2023/04/11 04:41:48;;;;;;;1.93;1.50;;;8.70;99.90;;;;;;5005675;28;21648;-59
2023/04/11 04:44:16;;;;;;;2.03;1.20;;;8.60;99.90;;;;;;5001391;28;20466;-70
2023/04/11 04:46:44;;;;;;;1.20;1.10;;;8.60;99.90;;;;;;5003799;28;20490;-59
2023/04/11 04:49:13;;;;;;;1.70;1.30;;;8.50;99.90;;;;;;4999170;28;20493;-60
2023/04/11 04:51:41;;;;;;;2.50;1.27;;;8.50;99.90;;;;;;5006564;28;20467;-59
2023/04/11 04:54:09;;;;;;;1.40;0.93;;;8.50;99.90;;;;;;5009061;28;20477;-59
2023/04/11 04:56:38;;;;;;;3.53;1.53;;;8.50;99.90;;;;;;5006505;28;20471;-60
2023/04/11 04:59:06;;;;;;;0.90;0.90;;;8.50;99.90;;;;;;5008970;28;20479;-61
2023/04/11 05:01:38;;;;;;;1.77;1.03;;;8.50;99.90;;;;;;5000998;28;20534;-59
2023/04/11 05:04:07;;;;;;;1.83;1.10;;;8.50;99.90;;;;;;4994049;28;20571;-60
2023/04/11 05:06:36;;;;;;;1.80;1.20;;;8.50;99.90;;;;;;5000242;28;20501;-60
2023/04/11 05:09:05;;;;;;;1.67;1.27;;;8.60;99.90;;;;;;4990665;28;20491;-60
2023/04/11 05:11:33;;;;;;;2.37;1.33;;;8.50;99.90;;;;;;5013414;28;20566;-61
2023/04/11 05:14:01;;;;;;;1.47;1.00;;;8.50;99.90;;;;;;5012251;28;20498;-58
2023/04/11 05:16:29;;;;;;;2.17;1.17;;;8.60;99.90;;;;;;5008962;28;20909;-59
2023/04/11 05:18:57;;;;;;;1.73;1.37;;;8.50;99.90;;;;;;5011702;28;20487;-59
2023/04/11 05:21:26;;;;;;;4.17;1.40;;;8.50;99.90;;;;;;5014661;28;20467;-62
2023/04/11 05:23:55;;;;;;;1.67;1.40;;;8.50;99.90;;;;;;5019771;28;20479;-61
2023/04/11 05:26:23;;;;;;;3.93;1.40;;;8.50;99.90;;;;;;5024055;28;20503;-60
2023/04/11 05:28:51;;;;;;;2.47;1.60;;;8.50;99.90;;;;;;5011712;28;20487;-60
2023/04/11 05:31:19;;;;;;;2.40;1.20;;;8.50;99.90;;;;;;5014493;28;20525;-60
2023/04/11 05:33:48;;;;;;;1.43;1.30;;;8.50;99.90;;;;;;5013002;28;20468;-59
2023/04/11 05:36:16;;;;;;;1.30;1.20;;;8.50;99.90;;;;;;5022187;28;20490;-60
2023/04/11 05:38:45;;;;;;;1.93;1.40;;;8.50;99.90;;;;;;5025977;28;20493;-59
2023/04/11 05:41:14;;;;;;;2.30;1.40;;;8.40;99.90;;;;;;5025477;28;20517;-59
2023/04/11 05:43:42;;;;;;;1.63;1.30;;;8.50;99.90;;;;;;5028584;28;20474;-60
2023/04/11 05:46:11;;;;;;;2.47;1.30;;;8.50;99.90;;;;;;5004691;28;20487;-59
2023/04/11 05:48:40;;;;;;;2.23;1.40;;;8.50;99.90;;;;;;4997917;28;20483;-59
2023/04/11 05:51:08;;;;;;;1.90;1.20;;;8.50;99.90;;;;;;5010306;28;20490;-59
2023/04/11 05:53:36;;;;;;;1.90;1.63;;;8.50;99.90;;;;;;5008788;28;20467;-60
2023/04/11 05:56:04;;;;;;;2.03;1.73;;;8.50;99.90;;;;;;5009349;28;20685;-60
2023/04/11 05:58:35;;;;;;;4.23;1.80;;;8.50;99.90;;;;;;5024615;28;20869;-60
2023/04/11 06:01:06;;;;;;;3.80;1.47;;;8.50;99.90;;;;;;5000429;28;20608;-60
2023/04/11 06:03:34;;;;;;;2.03;1.40;;;8.50;99.90;;;;;;5008383;28;20467;-60
2023/04/11 06:06:02;;;;;;;2.80;1.57;;;8.60;99.90;;;;;;5006299;28;20498;-61
2023/04/11 06:08:31;;;;;;;1.90;1.80;;;8.60;99.90;;;;;;5012279;28;20888;-61
2023/04/11 06:10:59;;;;;;;2.30;1.60;;;8.60;99.90;;;;;;5011271;28;20502;-60
2023/04/11 06:13:26;;;;;;;3.83;1.93;;;8.60;99.90;;;;;;5043960;28;20463;-59
2023/04/11 06:15:56;;;;;;;5.47;1.70;;;8.60;99.90;;;;;;5038305;28;20722;-59
2023/04/11 06:18:24;;;;;;;1.53;1.23;;;8.60;99.90;;;;;;5028462;28;21022;-60
2023/04/11 06:20:52;;;;;;;3.73;1.77;;;8.60;99.90;;;;;;5019865;28;22002;-60
2023/04/11 06:23:20;;;;;;;3.27;2.00;;;8.60;99.90;;;;;;5008570;28;20471;-61
2023/04/11 06:25:48;;;;;;;3.40;2.10;;;8.70;99.90;;;;;;5028757;28;20992;-61
2023/04/11 06:28:16;;;;;;;3.83;2.30;;;8.70;99.90;;;;;;5024644;28;20487;-61
2023/04/11 06:30:44;;;;;;;2.40;1.97;;;8.70;99.90;;;;;;5027069;28;20510;-62
2023/04/11 06:33:13;;;;;;;2.93;1.70;;;8.60;99.90;;;;;;5026592;28;20472;-61
2023/04/11 06:35:41;;;;;;;3.73;2.37;;;8.70;99.90;;;;;;5028285;28;20471;-60
2023/04/11 06:38:09;;;;;;;3.77;2.03;;;8.70;99.90;;;;;;5029820;28;20479;-60
2023/04/11 06:40:37;;;;;;;3.63;2.07;;;8.70;99.90;;;;;;5023478;28;21045;-61
2023/04/11 06:43:05;;;;;;;3.77;2.57;;;8.70;99.90;;;;;;5022976;28;20463;-60
2023/04/11 06:45:33;;;;;;;4.40;2.70;;;8.60;99.90;;;;;;4997988;28;21552;-60
2023/04/11 06:48:01;;;;;;;6.33;2.70;;;8.70;99.90;;;;;;5002689;28;20495;-61
2023/04/11 06:50:30;;;;;;;3.00;2.33;;;8.70;99.90;;;;;;5002215;28;20616;-61
2023/04/11 06:52:58;;;;;;;2.60;2.40;;;8.60;99.90;;;;;;4999456;28;20869;-61
2023/04/11 06:55:26;;;;;;;3.50;2.63;;;8.70;99.90;;;;;;5004110;28;20660;-60
2023/04/11 06:57:54;;;;;;;4.23;2.53;;;8.70;99.90;;;;;;5011184;28;20498;-61
2023/04/11 07:00:22;;;;;;;4.10;3.00;;;8.70;99.90;;;;;;5024185;28;20491;-61
2023/04/11 07:02:51;;;;;;;4.57;3.00;;;8.70;99.90;;;;;;5019514;28;20471;-61
2023/04/11 07:05:19;;;;;;;3.47;3.17;;;8.70;99.90;;;;;;5004323;28;20861;-61
2023/04/11 07:07:49;;;;;;;3.50;3.07;;;8.80;99.90;;;;;;5013350;28;20573;-61
2023/04/11 07:10:17;;;;;;;5.10;3.50;;;8.80;99.90;;;;;;5003923;28;20486;-61
2023/04/11 07:12:45;;;;;;;3.47;2.90;;;8.80;99.90;;;;;;5002455;28;20472;-61
2023/04/11 07:15:12;;;;;;;3.70;3.40;;;8.80;99.90;;;;;;5018239;28;20471;-60
2023/04/11 07:17:40;;;;;;;3.30;2.90;;;8.80;99.90;;;;;;4999563;28;20504;-60
2023/04/11 07:20:10;;;;;;;2.90;1.80;;;8.80;99.90;;;;;;5011028;28;20543;-60
2023/04/11 07:22:42;;;;;;;1.43;1.33;;;8.80;99.90;;;;;;5012174;28;20471;-60
2023/04/11 07:25:12;;;;;;;1.70;1.40;;;8.80;99.90;;;;;;5008288;28;21032;-61
2023/04/11 07:27:42;;;;;;;1.50;1.40;;;8.70;99.90;;;;;;5013029;28;20573;-61
2023/04/11 07:30:11;;;;;;;0.90;0.90;;;8.70;99.90;;;;;;5013426;28;20487;-61
2023/04/11 07:32:39;;;;;;;1.60;0.90;;;8.70;99.90;;;;;;5012889;28;20881;-61
2023/04/11 07:35:07;;;;;;;2.50;1.00;;;8.60;99.90;;;;;;5025769;28;20498;-62
2023/04/11 07:37:35;;;;;;;0.73;0.73;;;8.50;99.90;;;;;;5025460;28;22203;-61
2023/04/11 07:40:10;;;;;;;2.20;1.03;;;8.40;99.90;;;;;;5020185;28;20507;-60
2023/04/11 07:42:39;;;;;;;1.40;0.80;;;8.40;99.90;;;;;;5024751;28;21348;-60
2023/04/11 07:45:08;;;;;;;0.80;0.77;;;8.40;99.90;;;;;;5023021;28;20500;-60
2023/04/11 07:47:36;;;;;;;1.27;0.90;;;8.40;99.90;;;;;;5016048;28;20494;-60
2023/04/11 07:50:05;;;;;;;1.00;0.80;;;8.40;99.90;;;;;;5011796;28;21090;-60
2023/04/11 07:52:33;;;;;;;1.03;0.83;;;8.40;99.90;;;;;;5030536;28;20471;-60
2023/04/11 07:55:01;;;;;;;1.23;1.03;;;8.40;99.90;;;;;;5033376;28;20478;-60
2023/04/11 07:57:30;;;;;;;0.87;0.87;;;8.30;99.90;;;;;;5036244;28;20486;-58
2023/04/11 08:00:00;;;;;;;0.90;0.90;;;8.30;99.90;;;;;;5036204;28;20913;-60
2023/04/11 08:02:28;;;;;;;1.03;0.90;;;8.30;99.90;;;;;;5019389;28;20836;-60
2023/04/11 08:04:56;;;;;;;1.27;1.00;;;8.30;99.90;;;;;;5030813;28;20471;-60
2023/04/11 08:07:25;;;;;;;1.43;1.07;;;8.30;99.90;;;;;;5032398;28;20641;-60
2023/04/11 08:09:53;;;;;;;1.90;1.10;;;8.30;99.90;;;;;;5021642;28;20495;-60
2023/04/11 08:12:21;;;;;;;1.67;1.00;;;8.30;99.90;;;;;;5027744;28;20467;-61
2023/04/11 08:14:49;;;;;;;1.30;0.90;;;8.30;99.90;;;;;;5026141;28;20956;-63
2023/04/11 08:17:18;;;;;;;2.20;1.50;;;8.30;99.90;;;;;;5011545;28;20477;-61
2023/04/11 08:19:56;;;;;;;1.17;1.07;;;8.30;99.90;;;;;;5023904;28;20491;-60
2023/04/11 08:22:25;;;;;;;1.53;1.00;;;8.30;99.90;;;;;;5020297;28;20525;-61
2023/04/11 08:24:53;;;;;;;1.80;1.20;;;8.30;99.90;;;;;;5028726;28;20486;-60
2023/04/11 08:27:21;;;;;;;1.40;1.30;;;8.20;99.90;;;;;;5029640;28;20493;-60
2023/04/11 08:29:49;;;;;;;0.93;0.93;;;8.20;99.90;;;;;;5021220;28;20498;-60
2023/04/11 08:32:18;;;;;;;1.07;1.03;;;8.20;99.90;;;;;;5020514;28;20474;-60
2023/04/11 08:34:46;;;;;;;1.37;1.27;;;8.10;99.90;;;;;;5030345;28;20849;-61
2023/04/11 08:37:14;;;;;;;2.20;1.40;;;8.20;99.90;;;;;;5032185;28;20467;-60
2023/04/11 08:39:42;;;;;;;1.50;1.40;;;8.20;99.90;;;;;;5021609;28;20537;-60
2023/04/11 08:42:22;;;;;;;1.50;1.40;;;8.20;99.90;;;;;;5025406;28;20467;-59
2023/04/11 08:44:54;;;;;;;1.73;1.63;;;8.30;99.90;;;;;;5030495;28;20858;-60
2023/04/11 08:47:24;;;;;;;1.60;1.50;;;8.30;99.90;;;;;;5014181;28;21092;-60
2023/04/11 08:49:53;;;;;;;2.00;1.57;;;8.30;99.90;;;;;;5021791;28;20498;-61
2023/04/11 08:52:22;;;;;;;2.90;1.83;;;8.40;99.90;;;;;;5016079;28;20476;-61
2023/04/11 08:54:53;;;;;;;2.00;1.90;;;8.40;99.90;;;;;;5018821;28;20558;-60
2023/04/11 08:57:26;;;;;;;2.00;1.80;;;8.40;99.90;;;;;;5000878;28;20827;-61
2023/04/11 08:59:56;;;;;;;3.17;2.40;;;8.30;99.90;;;;;;5007657;28;20536;-61
2023/04/11 09:02:26;;;;;;;3.20;2.90;;;8.30;99.90;;;;;;5006751;28;20471;-60
2023/04/11 09:04:56;;;;;;;3.10;2.40;;;8.30;99.90;;;;;;5000923;28;20499;-61
2023/04/11 09:07:25;;;;;;;3.67;2.80;;;8.30;99.90;;;;;;5030413;28;20831;-60
2023/04/11 09:09:53;;;;;;;3.57;2.83;;;8.40;99.90;;;;;;5001905;28;21011;-61
2023/04/11 09:12:29;;;;;;;3.20;2.90;;;8.50;99.90;;;;;;5006855;28;20479;-61
2023/04/11 09:14:57;;;;;;;3.33;2.97;;;8.60;99.90;;;;;;5019278;28;20903;-61
2023/04/11 09:17:41;;;;;;;3.90;3.60;;;8.60;99.90;;;;;;5003023;28;20464;-60
2023/04/11 09:20:17;;;;;;;3.80;2.93;;;8.70;99.90;;;;;;5007465;28;20510;-60
2023/04/11 09:22:46;;;;;;;5.13;3.10;;;8.80;99.90;;;;;;5011204;28;20474;-61
2023/04/11 09:25:14;;;;;;;4.10;3.33;;;8.90;99.90;;;;;;4998195;28;20483;-61
2023/04/11 09:27:42;;;;;;;4.87;3.40;;;8.90;99.90;;;;;;5006991;28;20499;-61
2023/04/11 09:30:25;;;;;;;3.70;3.30;;;8.90;99.90;;;;;;4997200;28;20491;-61
2023/04/11 09:32:54;;;;;;;4.30;3.90;;;8.90;99.90;;;;;;5001992;28;20985;-62
2023/04/11 09:35:27;;;;;;;4.63;4.07;;;9.00;99.90;;;;;;5007685;28;22202;-60
2023/04/11 09:37:57;;;;;;;4.10;3.70;;;9.00;99.90;;;;;;5012390;28;20491;-61
2023/04/11 09:40:26;;;;;;;5.57;4.07;;;9.00;99.90;;;;;;5038282;28;20491;-61
2023/04/11 09:42:58;;;;;;;4.07;3.77;;;9.00;99.90;;;;;;5040828;28;20460;-62
2023/04/11 09:45:30;;;;;;;5.03;4.10;;;9.00;99.90;;;;;;5044220;28;20506;-62
2023/04/11 09:48:14;;;;;;;5.40;3.93;;;9.00;99.90;;;;;;5031942;28;22372;-62
2023/04/11 09:50:43;;;;;;;4.67;4.20;;;9.00;99.90;;;;;;5024050;28;20491;-62
2023/04/11 09:53:11;;;;;;;5.37;4.87;;;9.10;99.90;;;;;;5026154;28;21022;-62
2023/04/11 09:55:39;;;;;;;4.20;3.13;;;9.20;99.90;;;;;;5027917;28;20463;-61
2023/04/11 09:58:11;;;;;;;4.53;3.40;;;9.30;99.90;;;;;;5015204;28;22666;-61
2023/04/11 10:00:41;;;;;;;3.10;2.80;;;9.50;99.90;;;;;;5008433;28;20491;-61
2023/04/11 10:03:09;;;;;;;4.50;2.90;;;9.50;99.90;;;;;;5006805;28;20475;-62
2023/04/11 10:05:38;;;;;;;3.17;2.53;;;9.50;99.90;;;;;;5009679;28;20492;-60
2023/04/11 10:08:12;;;;;;;3.07;2.80;;;9.50;99.90;;;;;;5010572;28;20487;-61
2023/04/11 10:10:43;;;;;;;2.47;2.37;;;9.40;99.90;;;;;;5020591;28;20487;-60
2023/04/11 10:13:43;;;;;;;2.70;2.50;;;9.40;99.90;;;;;;5020500;28;20471;-61
2023/04/11 10:16:13;;;;;;;2.50;2.30;;;9.30;99.90;;;;;;5007546;28;21299;-62
2023/04/11 10:19:18;;;;;;;3.37;2.53;;;9.20;99.90;;;;;;5008918;28;20533;-61
2023/04/11 10:21:48;;;;;;;1.77;1.60;;;9.20;99.90;;;;;;5008670;28;20731;-60
2023/04/11 10:24:17;;;;;;;1.90;1.60;;;9.10;99.90;;;;;;5022436;28;20511;-61
2023/04/11 10:26:53;;;;;;;2.00;1.83;;;9.00;99.90;;;;;;5026151;28;20479;-61
2023/04/11 10:29:50;;;;;;;1.60;1.50;;;9.00;99.90;;;;;;5022317;28;20499;-61
2023/04/11 10:32:23;;;;;;;1.80;1.53;;;9.00;99.90;;;;;;5015299;28;20472;-61
2023/04/11 10:35:20;;;;;;;1.80;1.50;;;8.90;99.90;;;;;;5027312;28;20471;-62
2023/04/11 10:37:50;;;;;;;1.83;1.53;;;9.00;99.90;;;;;;5018116;28;20478;-62
2023/04/11 10:40:19;;;;;;;1.87;1.77;;;9.10;99.90;;;;;;5023747;28;20501;-61
2023/04/11 10:42:48;;;;;;;1.67;1.50;;;9.10;99.90;;;;;;5027692;28;20473;-61
2023/04/11 10:45:26;;;;;;;1.93;1.83;;;9.10;99.90;;;;;;5003581;28;20494;-61
2023/04/11 10:48:06;;;;;;;1.73;1.63;;;9.10;99.90;;;;;;5000090;28;20589;-61
2023/04/11 10:50:40;;;;;;;1.83;1.70;;;9.20;99.90;;;;;;5002058;28;21141;-62
2023/04/11 10:53:32;;;;;;;3.10;1.70;;;9.30;99.90;;;;;;5009583;28;20479;-62
2023/04/11 10:56:01;;;;;;;1.43;1.40;;;9.30;99.90;;;;;;5004622;28;20596;-61
2023/04/11 10:58:35;;;;;;;1.10;1.10;;;9.30;99.90;;;;;;4997025;28;20486;-60
2023/04/11 11:01:25;;;;;;;1.47;1.10;;;9.40;99.90;;;;;;5003231;28;20498;-61
2023/04/11 11:04:04;;;;;;;2.67;1.10;;;9.40;99.90;;;;;;5006199;28;21185;-62
2023/04/11 11:06:34;;;;;;;1.87;1.03;;;9.50;99.90;;;;;;5006650;28;20951;-61
2023/04/11 11:09:22;;;;;;;1.20;1.10;;;9.60;99.90;;;;;;5006541;28;21028;-61
2023/04/11 11:12:06;;;;;;;1.07;0.90;;;9.70;99.90;;;;;;5011605;28;20467;-61
2023/04/11 11:14:34;;;;;;;0.90;0.70;;;9.70;99.90;;;;;;5019898;28;20497;-60
2023/04/11 11:17:03;;;;;;;0.70;0.70;;;9.60;99.90;;;;;;5004625;28;20474;-62
2023/04/11 11:19:31;;;;;;;1.83;0.90;;;9.60;99.90;;;;;;4983456;28;21391;-63
2023/04/11 11:22:02;;;;;;;1.67;0.70;;;9.60;99.90;;;;;;5004685;28;20493;-62
2023/04/11 11:24:31;;;;;;;1.33;0.80;;;9.70;99.90;;;;;;5040340;28;20474;-62
2023/04/11 11:26:59;;;;;;;2.10;0.67;;;9.80;99.90;;;;;;5049690;28;20467;-64
2023/04/11 11:29:32;;;;;;;1.43;0.90;;;9.80;99.90;;;;;;5046340;28;20494;-63
2023/04/11 11:32:02;;;;;;;2.03;0.53;;;9.90;99.90;;;;;;5024692;28;20487;-62
2023/04/11 11:34:31;;;;;;;0.70;0.57;;;9.80;99.90;;;;;;5021349;28;20466;-61
2023/04/11 11:37:03;;;;;;;2.00;0.60;;;9.80;99.90;;;;;;5015863;28;20951;-62
2023/04/11 11:39:34;;;;;;;0.70;0.70;;;9.70;99.90;;;;;;5017856;28;21003;-62
2023/04/11 11:42:02;;;;;;;1.20;0.73;;;9.60;99.90;;;;;;5018946;28;20467;-61
2023/04/11 11:44:31;;;;;;;0.87;0.77;;;9.50;99.90;;;;;;5025103;28;20499;-62
2023/04/11 11:47:04;;;;;;;1.30;0.80;;;9.50;99.90;;;;;;5034037;28;20471;-61
2023/04/11 11:49:49;;;;;;;7.60;1.47;;;9.50;99.90;;;;;;5039089;28;20490;-61
2023/04/11 11:52:33;;;;;;;0.70;0.70;;;9.40;99.90;;;;;;5027580;28;20471;-61
2023/04/11 11:55:05;;;;;;;2.43;1.00;;;9.40;99.90;;;;;;5027105;28;20862;-61
2023/04/11 11:57:53;;;;;;;1.00;1.00;;;9.30;99.90;;;;;;5019737;28;20573;-61
2023/04/11 12:00:24;;;;;;;1.03;0.87;;;9.30;99.90;;;;;;5027616;28;20609;-61
2023/04/11 12:02:54;;;;;;;1.50;0.90;;;9.20;99.90;;;;;;5026785;28;20537;-60
2023/04/11 12:05:28;;;;;;;2.17;1.30;;;9.20;99.90;;;;;;5021959;28;20472;-61
2023/04/11 12:07:59;;;;;;;1.30;1.20;;;9.20;99.90;;;;;;5018297;28;20485;-61
2023/04/11 12:10:39;;;;;;;1.40;1.07;;;9.20;99.90;;;;;;5024312;28;20502;-61
2023/04/11 12:13:14;;;;;;;1.20;1.10;;;9.40;99.90;;;;;;5023113;28;20463;-61
2023/04/11 12:15:45;;;;;;;1.33;1.00;;;9.50;99.90;;;;;;5025527;28;20566;-61
2023/04/11 12:18:13;;;;;;;0.77;0.77;;;9.60;99.90;;;;;;5022927;28;20574;-60
2023/04/11 12:20:41;;;;;;;2.10;1.10;;;9.70;99.90;;;;;;5022169;28;20610;-62
2023/04/11 12:23:09;;;;;;;1.37;0.93;;;9.70;99.90;;;;;;5023807;28;20510;-62
2023/04/11 12:25:39;;;;;;;1.77;0.90;;;9.70;99.90;;;;;;5019303;28;20501;-61
2023/04/11 12:28:08;;;;;;;1.67;0.93;;;9.70;99.90;;;;;;5024825;28;20494;-63
2023/04/11 12:30:36;;;;;;;1.40;1.00;;;9.80;99.90;;;;;;5023371;28;20984;-61
2023/04/11 12:33:05;;;;;;;1.10;1.00;;;9.80;99.90;;;;;;5019966;28;20475;-62
2023/04/11 12:35:33;;;;;;;1.30;0.77;;;9.80;99.90;;;;;;5022508;28;21024;-62
2023/04/11 12:38:02;;;;;;;1.30;0.80;;;9.70;99.90;;;;;;5003827;28;20498;-60
2023/04/11 12:40:31;;;;;;;2.90;0.97;;;9.60;99.90;;;;;;5004045;28;20495;-62
2023/04/11 12:43:00;;;;;;;1.10;0.90;;;9.60;99.90;;;;;;5015592;28;20921;-61
2023/04/11 12:45:28;;;;;;;0.80;0.80;;;9.60;99.90;;;;;;5028448;28;20972;-62
2023/04/11 12:47:56;;;;;;;1.17;0.90;;;9.60;99.90;;;;;;5016924;28;20483;-62
2023/04/11 12:50:24;;;;;;;2.37;1.10;;;9.60;99.90;;;;;;5028423;28;20594;-65
2023/04/11 12:52:52;;;;;;;1.03;0.83;;;9.70;99.90;;;;;;5028866;28;20550;-62
2023/04/11 12:55:22;;;;;;;1.20;0.70;;;10.00;99.90;;;;;;5015657;28;20473;-62
2023/04/11 12:57:50;;;;;;;2.40;0.80;;;10.30;99.90;;;;;;5030629;28;20467;-61
2023/04/11 13:00:20;;;;;;;3.67;1.00;;;10.50;99.90;;;;;;5024382;28;20505;-61
2023/04/11 13:02:48;;;;;;;1.40;0.90;;;10.70;99.90;;;;;;5021840;28;20472;-62
2023/04/11 13:05:17;;;;;;;1.30;0.93;;;10.80;99.90;;;;;;5030774;28;20529;-62
2023/04/11 13:07:46;;;;;;;1.00;0.80;;;10.80;99.90;;;;;;5024444;28;20478;-62
2023/04/11 13:10:15;;;;;;;1.93;1.07;;;10.80;99.90;;;;;;5028579;28;20499;-62